This is the latest recevied weather packets stored in our database for station/object K5KVN. If no packets are shown the sender has not sent any weather packets the latest 10 day(s).
| Time | Temp. | Humidity | Pressure | Rain* | Wind** | Luminosity | Snow |
|---|---|---|---|---|---|---|---|
| 1787672734 | 31.11° C | 63% | 1016.9 hPa | 0 mm | - | - | - |
| 1787672194 | 30.56° C | 67% | 1016.9 hPa | 0 mm | - | - | - |
| 1787671534 | 29.44° C | 69% | 1016.9 hPa | 0 mm | - | - | - |
| 1787670934 | 28.89° C | 74% | 1017 hPa | 0 mm | - | - | - |
| 1787670335 | 28.33° C | 75% | 1017.1 hPa | 0 mm | - | - | - |
| 1787669733 | 27.22° C | 78% | 1016.9 hPa | 0 mm | - | - | - |
| 1787669195 | 26.67° C | 79% | 1017 hPa | 0 mm | - | - | - |
| 1787668533 | 26.67° C | 80% | 1016.8 hPa | 0 mm | - | - | - |
| 1787667932 | 26.11° C | 81% | 1016.7 hPa | 0 mm | - | - | - |
| 1787667332 | 25.56° C | 83% | 1016.8 hPa | 0 mm | - | - | - |
| 1787666733 | 25.56° C | 83% | 1016.8 hPa | 0 mm | - | - | - |
| 1787666193 | 25° C | 85% | 1016.9 hPa | 0 mm | - | - | - |
| 1787665531 | 24.44° C | 86% | 1016.9 hPa | 0 mm | - | - | - |
| 1787664932 | 24.44° C | 88% | 1016.9 hPa | 0 mm | - | - | - |
| 1787664392 | 23.89° C | 89% | 1016.9 hPa | 0 mm | - | - | - |
| 1787663793 | 23.33° C | 92% | 1017 hPa | 0 mm | - | - | - |
| 1787663130 | 22.78° C | 94% | 1017 hPa | 0 mm | - | - | - |
| 1787662532 | 21.67° C | 95% | 1016.8 hPa | 0 mm | - | - | - |
| 1787661932 | 21.67° C | 95% | 1016.8 hPa | 0 mm | - | - | - |
| 1787661390 | 21.11° C | 95% | 1016.6 hPa | 0 mm | - | - | - |
| 1787660729 | 21.11° C | 94% | 1016.5 hPa | 0 mm | - | - | - |
| 1787660129 | 21.11° C | 94% | 1016.5 hPa | 0 mm | - | - | - |
| 1787659528 | 21.11° C | 94% | 1016.5 hPa | 0 mm | - | - | - |
| 1787658927 | 21.11° C | 94% | 1016.4 hPa | 0 mm | - | - | - |
| 1787658327 | 21.11° C | 94% | 1016.3 hPa | 0 mm | - | - | - |
* Rain latest hour (hover to see other rain measurements)
** Current wind speed in m/s (hover to see current wind gust speed)